sensor_id;sensor_type;location;lat;lon;timestamp;P1;durP1;ratioP1;P2;durP2;ratioP2
21315;SDS011;10817;55.820;13.030;2023-03-26T00:00:15;12.70;;;4.72;;
21315;SDS011;10817;55.820;13.030;2023-03-26T00:02:42;18.65;;;4.75;;
21315;SDS011;10817;55.820;13.030;2023-03-26T00:05:09;26.75;;;5.22;;
21315;SDS011;10817;55.820;13.030;2023-03-26T00:07:38;19.63;;;4.97;;
21315;SDS011;10817;55.820;13.030;2023-03-26T00:10:08;18.98;;;4.50;;
21315;SDS011;10817;55.820;13.030;2023-03-26T00:12:36;18.73;;;4.78;;
21315;SDS011;10817;55.820;13.030;2023-03-26T00:15:05;15.38;;;4.25;;
21315;SDS011;10817;55.820;13.030;2023-03-26T00:17:34;17.15;;;4.88;;
21315;SDS011;10817;55.820;13.030;2023-03-26T00:20:02;16.92;;;4.88;;
21315;SDS011;10817;55.820;13.030;2023-03-26T00:22:29;21.25;;;5.72;;
21315;SDS011;10817;55.820;13.030;2023-03-26T00:24:56;21.58;;;5.78;;
21315;SDS011;10817;55.820;13.030;2023-03-26T00:27:24;18.08;;;7.15;;
21315;SDS011;10817;55.820;13.030;2023-03-26T00:29:52;23.98;;;5.53;;
21315;SDS011;10817;55.820;13.030;2023-03-26T00:32:20;21.65;;;5.97;;
21315;SDS011;10817;55.820;13.030;2023-03-26T00:34:52;19.25;;;5.60;;
21315;SDS011;10817;55.820;13.030;2023-03-26T00:37:19;18.88;;;5.22;;
21315;SDS011;10817;55.820;13.030;2023-03-26T00:39:50;21.25;;;5.30;;
21315;SDS011;10817;55.820;13.030;2023-03-26T00:42:18;18.15;;;4.95;;
21315;SDS011;10817;55.820;13.030;2023-03-26T00:44:46;16.75;;;5.25;;
21315;SDS011;10817;55.820;13.030;2023-03-26T00:47:15;18.33;;;4.88;;
21315;SDS011;10817;55.820;13.030;2023-03-26T00:49:42;19.98;;;5.65;;
21315;SDS011;10817;55.820;13.030;2023-03-26T00:52:11;15.77;;;5.32;;
21315;SDS011;10817;55.820;13.030;2023-03-26T00:54:38;20.88;;;5.15;;
21315;SDS011;10817;55.820;13.030;2023-03-26T00:57:05;16.02;;;5.10;;
21315;SDS011;10817;55.820;13.030;2023-03-26T00:59:34;12.60;;;4.78;;
21315;SDS011;10817;55.820;13.030;2023-03-26T01:02:03;19.67;;;5.93;;
21315;SDS011;10817;55.820;13.030;2023-03-26T01:04:34;22.33;;;5.10;;
21315;SDS011;10817;55.820;13.030;2023-03-26T01:07:03;17.45;;;4.95;;
21315;SDS011;10817;55.820;13.030;2023-03-26T01:09:33;14.13;;;5.05;;
21315;SDS011;10817;55.820;13.030;2023-03-26T01:12:01;17.02;;;5.68;;
21315;SDS011;10817;55.820;13.030;2023-03-26T01:14:29;16.40;;;4.57;;
21315;SDS011;10817;55.820;13.030;2023-03-26T01:16:57;14.23;;;4.43;;
21315;SDS011;10817;55.820;13.030;2023-03-26T01:19:26;18.33;;;4.63;;
21315;SDS011;10817;55.820;13.030;2023-03-26T01:21:55;17.00;;;4.75;;
21315;SDS011;10817;55.820;13.030;2023-03-26T01:24:24;17.20;;;5.13;;
21315;SDS011;10817;55.820;13.030;2023-03-26T01:29:39;18.80;;;5.57;;
21315;SDS011;10817;55.820;13.030;2023-03-26T01:32:12;17.52;;;5.15;;
21315;SDS011;10817;55.820;13.030;2023-03-26T01:34:44;15.57;;;5.78;;
21315;SDS011;10817;55.820;13.030;2023-03-26T01:37:18;15.77;;;4.82;;
21315;SDS011;10817;55.820;13.030;2023-03-26T01:39:49;18.58;;;5.97;;
21315;SDS011;10817;55.820;13.030;2023-03-26T01:42:23;14.90;;;5.18;;
21315;SDS011;10817;55.820;13.030;2023-03-26T01:44:54;22.58;;;5.45;;
21315;SDS011;10817;55.820;13.030;2023-03-26T01:47:22;13.57;;;4.35;;
21315;SDS011;10817;55.820;13.030;2023-03-26T01:49:50;17.45;;;4.53;;
21315;SDS011;10817;55.820;13.030;2023-03-26T01:52:19;17.92;;;4.75;;
21315;SDS011;10817;55.820;13.030;2023-03-26T01:54:46;17.50;;;5.38;;
21315;SDS011;10817;55.820;13.030;2023-03-26T01:57:16;24.70;;;6.05;;
21315;SDS011;10817;55.820;13.030;2023-03-26T01:59:51;15.38;;;5.88;;
21315;SDS011;10817;55.820;13.030;2023-03-26T02:02:21;18.27;;;5.18;;
21315;SDS011;10817;55.820;13.030;2023-03-26T02:04:53;19.63;;;5.30;;
21315;SDS011;10817;55.820;13.030;2023-03-26T02:07:22;22.13;;;4.50;;
21315;SDS011;10817;55.820;13.030;2023-03-26T02:09:53;15.23;;;5.10;;
21315;SDS011;10817;55.820;13.030;2023-03-26T02:12:26;14.35;;;5.00;;
21315;SDS011;10817;55.820;13.030;2023-03-26T02:14:54;21.25;;;4.82;;
21315;SDS011;10817;55.820;13.030;2023-03-26T02:17:21;16.58;;;5.22;;
21315;SDS011;10817;55.820;13.030;2023-03-26T02:19:49;14.25;;;4.65;;
21315;SDS011;10817;55.820;13.030;2023-03-26T02:22:16;14.35;;;4.05;;
21315;SDS011;10817;55.820;13.030;2023-03-26T02:24:44;17.20;;;4.30;;
21315;SDS011;10817;55.820;13.030;2023-03-26T02:27:12;20.50;;;5.03;;
21315;SDS011;10817;55.820;13.030;2023-03-26T02:29:44;15.40;;;4.85;;
21315;SDS011;10817;55.820;13.030;2023-03-26T02:32:12;17.38;;;4.97;;
21315;SDS011;10817;55.820;13.030;2023-03-26T02:34:40;21.70;;;4.97;;
21315;SDS011;10817;55.820;13.030;2023-03-26T02:37:07;17.30;;;4.32;;
21315;SDS011;10817;55.820;13.030;2023-03-26T02:39:37;16.70;;;5.80;;
21315;SDS011;10817;55.820;13.030;2023-03-26T02:42:12;15.60;;;5.13;;
21315;SDS011;10817;55.820;13.030;2023-03-26T02:44:46;14.27;;;4.50;;
21315;SDS011;10817;55.820;13.030;2023-03-26T02:47:16;20.08;;;6.20;;
21315;SDS011;10817;55.820;13.030;2023-03-26T02:50:02;17.25;;;5.50;;
21315;SDS011;10817;55.820;13.030;2023-03-26T02:52:46;17.38;;;5.32;;
21315;SDS011;10817;55.820;13.030;2023-03-26T02:55:14;19.20;;;5.80;;
21315;SDS011;10817;55.820;13.030;2023-03-26T02:57:43;18.60;;;5.68;;
21315;SDS011;10817;55.820;13.030;2023-03-26T03:00:17;16.08;;;5.53;;
21315;SDS011;10817;55.820;13.030;2023-03-26T03:02:52;31.33;;;7.90;;
21315;SDS011;10817;55.820;13.030;2023-03-26T03:05:31;16.88;;;5.38;;
21315;SDS011;10817;55.820;13.030;2023-03-26T03:08:10;19.63;;;5.50;;
21315;SDS011;10817;55.820;13.030;2023-03-26T03:10:55;25.90;;;7.18;;
21315;SDS011;10817;55.820;13.030;2023-03-26T03:13:34;21.60;;;6.35;;
21315;SDS011;10817;55.820;13.030;2023-03-26T03:16:03;26.23;;;6.25;;
21315;SDS011;10817;55.820;13.030;2023-03-26T03:18:32;25.80;;;6.13;;
21315;SDS011;10817;55.820;13.030;2023-03-26T03:21:00;25.35;;;6.43;;
21315;SDS011;10817;55.820;13.030;2023-03-26T03:23:27;21.27;;;6.15;;
21315;SDS011;10817;55.820;13.030;2023-03-26T03:26:05;16.95;;;5.20;;
21315;SDS011;10817;55.820;13.030;2023-03-26T03:28:37;20.83;;;5.82;;
21315;SDS011;10817;55.820;13.030;2023-03-26T03:31:06;19.17;;;6.03;;
21315;SDS011;10817;55.820;13.030;2023-03-26T03:33:35;22.63;;;6.50;;
21315;SDS011;10817;55.820;13.030;2023-03-26T03:36:02;28.73;;;6.80;;
21315;SDS011;10817;55.820;13.030;2023-03-26T03:38:35;21.48;;;6.40;;
21315;SDS011;10817;55.820;13.030;2023-03-26T03:41:02;19.52;;;5.97;;
21315;SDS011;10817;55.820;13.030;2023-03-26T03:43:33;18.15;;;6.07;;
21315;SDS011;10817;55.820;13.030;2023-03-26T03:46:12;18.60;;;5.50;;
21315;SDS011;10817;55.820;13.030;2023-03-26T03:48:44;20.95;;;5.53;;
21315;SDS011;10817;55.820;13.030;2023-03-26T03:51:18;15.02;;;5.53;;
21315;SDS011;10817;55.820;13.030;2023-03-26T03:53:56;13.43;;;4.78;;
21315;SDS011;10817;55.820;13.030;2023-03-26T03:56:34;15.73;;;3.95;;
21315;SDS011;10817;55.820;13.030;2023-03-26T03:59:28;12.63;;;4.55;;
21315;SDS011;10817;55.820;13.030;2023-03-26T04:01:57;8.38;;;4.05;;
21315;SDS011;10817;55.820;13.030;2023-03-26T04:04:32;10.40;;;4.13;;
21315;SDS011;10817;55.820;13.030;2023-03-26T04:07:01;12.70;;;4.55;;
21315;SDS011;10817;55.820;13.030;2023-03-26T04:09:49;9.98;;;4.53;;
21315;SDS011;10817;55.820;13.030;2023-03-26T04:12:18;10.48;;;4.10;;
21315;SDS011;10817;55.820;13.030;2023-03-26T04:14:58;8.52;;;4.03;;
21315;SDS011;10817;55.820;13.030;2023-03-26T04:17:27;10.10;;;4.57;;
21315;SDS011;10817;55.820;13.030;2023-03-26T04:19:55;11.68;;;4.35;;
21315;SDS011;10817;55.820;13.030;2023-03-26T04:22:28;8.38;;;4.03;;
21315;SDS011;10817;55.820;13.030;2023-03-26T04:24:59;8.18;;;3.33;;
21315;SDS011;10817;55.820;13.030;2023-03-26T04:27:43;6.30;;;2.55;;
21315;SDS011;10817;55.820;13.030;2023-03-26T04:30:17;6.47;;;2.80;;
21315;SDS011;10817;55.820;13.030;2023-03-26T04:32:52;10.07;;;3.63;;
21315;SDS011;10817;55.820;13.030;2023-03-26T04:35:23;11.07;;;3.38;;
21315;SDS011;10817;55.820;13.030;2023-03-26T04:37:53;6.78;;;2.92;;
21315;SDS011;10817;55.820;13.030;2023-03-26T04:40:27;5.18;;;2.50;;
21315;SDS011;10817;55.820;13.030;2023-03-26T04:42:55;6.65;;;2.90;;
21315;SDS011;10817;55.820;13.030;2023-03-26T04:45:59;11.25;;;2.85;;
21315;SDS011;10817;55.820;13.030;2023-03-26T04:48:36;9.43;;;3.00;;
21315;SDS011;10817;55.820;13.030;2023-03-26T04:51:05;12.75;;;3.47;;
21315;SDS011;10817;55.820;13.030;2023-03-26T04:53:34;7.03;;;2.70;;
21315;SDS011;10817;55.820;13.030;2023-03-26T04:56:24;4.93;;;2.72;;
21315;SDS011;10817;55.820;13.030;2023-03-26T04:59:04;7.65;;;2.47;;
21315;SDS011;10817;55.820;13.030;2023-03-26T05:01:37;9.10;;;3.63;;
21315;SDS011;10817;55.820;13.030;2023-03-26T05:04:07;14.20;;;2.58;;
21315;SDS011;10817;55.820;13.030;2023-03-26T05:06:34;5.75;;;2.60;;
21315;SDS011;10817;55.820;13.030;2023-03-26T05:09:07;9.75;;;2.70;;
21315;SDS011;10817;55.820;13.030;2023-03-26T05:11:57;12.27;;;3.40;;
21315;SDS011;10817;55.820;13.030;2023-03-26T05:14:25;7.38;;;2.72;;
21315;SDS011;10817;55.820;13.030;2023-03-26T05:16:52;8.75;;;2.55;;
21315;SDS011;10817;55.820;13.030;2023-03-26T05:19:21;7.13;;;2.40;;
21315;SDS011;10817;55.820;13.030;2023-03-26T05:21:48;12.07;;;2.58;;
21315;SDS011;10817;55.820;13.030;2023-03-26T05:24:15;7.18;;;2.20;;
21315;SDS011;10817;55.820;13.030;2023-03-26T05:26:46;6.57;;;2.25;;
21315;SDS011;10817;55.820;13.030;2023-03-26T05:29:16;4.63;;;1.90;;
21315;SDS011;10817;55.820;13.030;2023-03-26T05:31:48;5.43;;;2.33;;
21315;SDS011;10817;55.820;13.030;2023-03-26T05:34:15;9.35;;;2.65;;
21315;SDS011;10817;55.820;13.030;2023-03-26T05:36:44;4.38;;;1.90;;
21315;SDS011;10817;55.820;13.030;2023-03-26T05:39:34;5.20;;;1.80;;
21315;SDS011;10817;55.820;13.030;2023-03-26T05:42:27;3.92;;;1.70;;
21315;SDS011;10817;55.820;13.030;2023-03-26T05:45:24;5.85;;;1.75;;
21315;SDS011;10817;55.820;13.030;2023-03-26T05:47:52;3.13;;;1.30;;
21315;SDS011;10817;55.820;13.030;2023-03-26T05:50:21;3.03;;;1.30;;
21315;SDS011;10817;55.820;13.030;2023-03-26T05:52:53;5.15;;;1.60;;
21315;SDS011;10817;55.820;13.030;2023-03-26T05:55:38;5.40;;;1.27;;
21315;SDS011;10817;55.820;13.030;2023-03-26T05:58:34;6.78;;;1.50;;
21315;SDS011;10817;55.820;13.030;2023-03-26T06:01:22;3.50;;;1.20;;
21315;SDS011;10817;55.820;13.030;2023-03-26T06:04:09;5.03;;;1.50;;
21315;SDS011;10817;55.820;13.030;2023-03-26T06:06:41;7.32;;;1.45;;
21315;SDS011;10817;55.820;13.030;2023-03-26T06:09:10;5.80;;;1.48;;
21315;SDS011;10817;55.820;13.030;2023-03-26T06:11:38;5.65;;;1.30;;
21315;SDS011;10817;55.820;13.030;2023-03-26T06:14:06;6.28;;;1.40;;
21315;SDS011;10817;55.820;13.030;2023-03-26T06:16:36;7.18;;;1.67;;
21315;SDS011;10817;55.820;13.030;2023-03-26T06:19:19;3.00;;;1.17;;
21315;SDS011;10817;55.820;13.030;2023-03-26T06:21:50;3.28;;;1.08;;
21315;SDS011;10817;55.820;13.030;2023-03-26T06:24:22;6.88;;;1.20;;
21315;SDS011;10817;55.820;13.030;2023-03-26T06:27:18;5.25;;;1.40;;
21315;SDS011;10817;55.820;13.030;2023-03-26T06:30:11;7.03;;;1.40;;
21315;SDS011;10817;55.820;13.030;2023-03-26T06:32:52;4.03;;;1.25;;
21315;SDS011;10817;55.820;13.030;2023-03-26T06:35:23;4.03;;;1.20;;
21315;SDS011;10817;55.820;13.030;2023-03-26T06:37:51;9.00;;;2.30;;
21315;SDS011;10817;55.820;13.030;2023-03-26T06:40:20;4.63;;;1.23;;
21315;SDS011;10817;55.820;13.030;2023-03-26T06:43:02;9.13;;;1.73;;
21315;SDS011;10817;55.820;13.030;2023-03-26T06:45:48;8.70;;;1.98;;
21315;SDS011;10817;55.820;13.030;2023-03-26T06:48:34;4.82;;;1.55;;
21315;SDS011;10817;55.820;13.030;2023-03-26T06:51:25;5.35;;;1.63;;
21315;SDS011;10817;55.820;13.030;2023-03-26T06:54:07;4.45;;;1.38;;
21315;SDS011;10817;55.820;13.030;2023-03-26T06:56:52;9.52;;;1.95;;
21315;SDS011;10817;55.820;13.030;2023-03-26T06:59:54;3.30;;;1.15;;
21315;SDS011;10817;55.820;13.030;2023-03-26T07:02:43;6.53;;;1.63;;
21315;SDS011;10817;55.820;13.030;2023-03-26T07:05:28;7.60;;;1.70;;
21315;SDS011;10817;55.820;13.030;2023-03-26T07:08:19;8.80;;;2.05;;
21315;SDS011;10817;55.820;13.030;2023-03-26T07:11:05;4.43;;;1.38;;
21315;SDS011;10817;55.820;13.030;2023-03-26T07:14:08;3.42;;;1.42;;
21315;SDS011;10817;55.820;13.030;2023-03-26T07:16:52;8.05;;;1.95;;
21315;SDS011;10817;55.820;13.030;2023-03-26T07:19:33;11.95;;;2.17;;
21315;SDS011;10817;55.820;13.030;2023-03-26T07:22:00;12.95;;;1.80;;
21315;SDS011;10817;55.820;13.030;2023-03-26T07:24:47;9.55;;;1.75;;
21315;SDS011;10817;55.820;13.030;2023-03-26T07:27:36;11.90;;;1.63;;
21315;SDS011;10817;55.820;13.030;2023-03-26T07:30:09;4.80;;;1.38;;
21315;SDS011;10817;55.820;13.030;2023-03-26T07:32:41;9.60;;;1.83;;
21315;SDS011;10817;55.820;13.030;2023-03-26T07:35:35;5.43;;;1.58;;
21315;SDS011;10817;55.820;13.030;2023-03-26T07:38:29;13.57;;;1.88;;
21315;SDS011;10817;55.820;13.030;2023-03-26T07:41:19;6.53;;;1.27;;
21315;SDS011;10817;55.820;13.030;2023-03-26T07:44:13;11.85;;;1.55;;
21315;SDS011;10817;55.820;13.030;2023-03-26T07:46:49;7.30;;;1.60;;
21315;SDS011;10817;55.820;13.030;2023-03-26T07:49:34;8.02;;;1.80;;
21315;SDS011;10817;55.820;13.030;2023-03-26T07:52:21;6.20;;;1.90;;
21315;SDS011;10817;55.820;13.030;2023-03-26T07:55:05;6.95;;;1.80;;
21315;SDS011;10817;55.820;13.030;2023-03-26T07:57:34;7.55;;;1.55;;
21315;SDS011;10817;55.820;13.030;2023-03-26T08:00:28;7.30;;;1.55;;
21315;SDS011;10817;55.820;13.030;2023-03-26T08:05:53;4.38;;;1.33;;
21315;SDS011;10817;55.820;13.030;2023-03-26T08:08:34;7.70;;;1.83;;
21315;SDS011;10817;55.820;13.030;2023-03-26T08:11:25;4.15;;;1.30;;
21315;SDS011;10817;55.820;13.030;2023-03-26T08:14:01;3.95;;;1.50;;
21315;SDS011;10817;55.820;13.030;2023-03-26T08:16:30;6.30;;;1.50;;
21315;SDS011;10817;55.820;13.030;2023-03-26T08:19:00;7.90;;;1.83;;
21315;SDS011;10817;55.820;13.030;2023-03-26T08:21:32;8.02;;;2.72;;
21315;SDS011;10817;55.820;13.030;2023-03-26T08:24:03;6.63;;;1.23;;
21315;SDS011;10817;55.820;13.030;2023-03-26T08:26:34;9.73;;;2.08;;
21315;SDS011;10817;55.820;13.030;2023-03-26T08:29:06;6.65;;;1.67;;
21315;SDS011;10817;55.820;13.030;2023-03-26T08:31:36;6.82;;;1.60;;
21315;SDS011;10817;55.820;13.030;2023-03-26T08:34:07;9.05;;;2.25;;
21315;SDS011;10817;55.820;13.030;2023-03-26T08:36:37;3.38;;;1.30;;
21315;SDS011;10817;55.820;13.030;2023-03-26T08:39:04;11.50;;;2.78;;
21315;SDS011;10817;55.820;13.030;2023-03-26T08:41:38;9.00;;;1.88;;
21315;SDS011;10817;55.820;13.030;2023-03-26T08:47:15;10.32;;;1.92;;
21315;SDS011;10817;55.820;13.030;2023-03-26T08:49:53;5.97;;;1.65;;
21315;SDS011;10817;55.820;13.030;2023-03-26T08:55:19;7.50;;;1.80;;
21315;SDS011;10817;55.820;13.030;2023-03-26T08:58:02;6.97;;;2.15;;
21315;SDS011;10817;55.820;13.030;2023-03-26T09:00:39;4.07;;;1.50;;
21315;SDS011;10817;55.820;13.030;2023-03-26T09:03:15;6.90;;;1.40;;
21315;SDS011;10817;55.820;13.030;2023-03-26T09:05:44;10.98;;;1.67;;
21315;SDS011;10817;55.820;13.030;2023-03-26T09:08:18;7.80;;;1.63;;
21315;SDS011;10817;55.820;13.030;2023-03-26T09:16:50;7.35;;;1.55;;
21315;SDS011;10817;55.820;13.030;2023-03-26T09:19:25;10.70;;;1.90;;
21315;SDS011;10817;55.820;13.030;2023-03-26T09:22:03;8.90;;;1.90;;
21315;SDS011;10817;55.820;13.030;2023-03-26T09:24:42;14.45;;;1.90;;
21315;SDS011;10817;55.820;13.030;2023-03-26T09:27:15;10.75;;;2.22;;
21315;SDS011;10817;55.820;13.030;2023-03-26T09:35:38;8.48;;;2.17;;
21315;SDS011;10817;55.820;13.030;2023-03-26T09:38:12;6.43;;;1.83;;
21315;SDS011;10817;55.820;13.030;2023-03-26T09:40:46;6.30;;;1.73;;
21315;SDS011;10817;55.820;13.030;2023-03-26T09:46:04;5.95;;;1.80;;
21315;SDS011;10817;55.820;13.030;2023-03-26T09:48:40;4.80;;;1.70;;
21315;SDS011;10817;55.820;13.030;2023-03-26T09:51:16;15.18;;;2.85;;
21315;SDS011;10817;55.820;13.030;2023-03-26T09:53:50;6.43;;;1.80;;
21315;SDS011;10817;55.820;13.030;2023-03-26T09:56:24;7.65;;;1.85;;
21315;SDS011;10817;55.820;13.030;2023-03-26T10:01:52;12.93;;;2.38;;
21315;SDS011;10817;55.820;13.030;2023-03-26T10:04:27;10.40;;;2.22;;
21315;SDS011;10817;55.820;13.030;2023-03-26T10:07:02;8.95;;;1.83;;
21315;SDS011;10817;55.820;13.030;2023-03-26T10:09:37;11.15;;;2.15;;
21315;SDS011;10817;55.820;13.030;2023-03-26T10:12:11;5.20;;;1.50;;
21315;SDS011;10817;55.820;13.030;2023-03-26T10:14:42;6.05;;;1.65;;
21315;SDS011;10817;55.820;13.030;2023-03-26T10:17:19;8.93;;;1.90;;
21315;SDS011;10817;55.820;13.030;2023-03-26T10:20:04;11.05;;;2.25;;
21315;SDS011;10817;55.820;13.030;2023-03-26T10:22:42;6.07;;;1.80;;
21315;SDS011;10817;55.820;13.030;2023-03-26T10:25:25;6.28;;;1.50;;
21315;SDS011;10817;55.820;13.030;2023-03-26T10:27:57;8.02;;;2.10;;
21315;SDS011;10817;55.820;13.030;2023-03-26T10:30:34;9.32;;;2.00;;
21315;SDS011;10817;55.820;13.030;2023-03-26T10:33:08;9.20;;;1.88;;
21315;SDS011;10817;55.820;13.030;2023-03-26T10:35:43;9.68;;;1.60;;
21315;SDS011;10817;55.820;13.030;2023-03-26T10:38:17;8.88;;;1.92;;
21315;SDS011;10817;55.820;13.030;2023-03-26T10:40:49;12.07;;;1.95;;
21315;SDS011;10817;55.820;13.030;2023-03-26T10:43:22;11.02;;;1.92;;
21315;SDS011;10817;55.820;13.030;2023-03-26T10:48:46;10.02;;;1.67;;
21315;SDS011;10817;55.820;13.030;2023-03-26T10:51:21;11.30;;;2.25;;
21315;SDS011;10817;55.820;13.030;2023-03-26T10:53:52;14.05;;;2.25;;
21315;SDS011;10817;55.820;13.030;2023-03-26T10:56:21;12.30;;;2.10;;
21315;SDS011;10817;55.820;13.030;2023-03-26T10:58:51;7.80;;;1.65;;
21315;SDS011;10817;55.820;13.030;2023-03-26T11:01:21;9.82;;;1.83;;
21315;SDS011;10817;55.820;13.030;2023-03-26T11:03:50;10.73;;;1.92;;
21315;SDS011;10817;55.820;13.030;2023-03-26T11:06:22;8.40;;;1.88;;
21315;SDS011;10817;55.820;13.030;2023-03-26T11:08:56;8.55;;;2.17;;
21315;SDS011;10817;55.820;13.030;2023-03-26T11:11:28;9.55;;;2.03;;
21315;SDS011;10817;55.820;13.030;2023-03-26T11:14:26;5.70;;;1.77;;
21315;SDS011;10817;55.820;13.030;2023-03-26T11:16:58;6.05;;;1.58;;
21315;SDS011;10817;55.820;13.030;2023-03-26T11:19:27;6.70;;;1.60;;
21315;SDS011;10817;55.820;13.030;2023-03-26T11:21:59;6.40;;;1.55;;
21315;SDS011;10817;55.820;13.030;2023-03-26T11:27:18;4.05;;;1.15;;
21315;SDS011;10817;55.820;13.030;2023-03-26T11:29:51;4.35;;;1.50;;
21315;SDS011;10817;55.820;13.030;2023-03-26T11:32:22;4.65;;;1.10;;
21315;SDS011;10817;55.820;13.030;2023-03-26T11:34:52;1.13;;;1.00;;
21315;SDS011;10817;55.820;13.030;2023-03-26T11:37:25;3.50;;;1.50;;
21315;SDS011;10817;55.820;13.030;2023-03-26T11:39:55;5.60;;;1.55;;
21315;SDS011;10817;55.820;13.030;2023-03-26T11:42:26;1.88;;;1.10;;
21315;SDS011;10817;55.820;13.030;2023-03-26T11:44:54;1.65;;;1.23;;
21315;SDS011;10817;55.820;13.030;2023-03-26T11:47:24;1.77;;;1.17;;
21315;SDS011;10817;55.820;13.030;2023-03-26T11:49:55;2.33;;;1.20;;
21315;SDS011;10817;55.820;13.030;2023-03-26T11:52:23;2.83;;;1.10;;
21315;SDS011;10817;55.820;13.030;2023-03-26T11:54:51;2.03;;;1.10;;
21315;SDS011;10817;55.820;13.030;2023-03-26T11:57:24;2.35;;;1.13;;
21315;SDS011;10817;55.820;13.030;2023-03-26T11:59:55;4.90;;;1.67;;
21315;SDS011;10817;55.820;13.030;2023-03-26T12:02:25;3.08;;;1.10;;
21315;SDS011;10817;55.820;13.030;2023-03-26T12:05:09;5.10;;;1.10;;
21315;SDS011;10817;55.820;13.030;2023-03-26T12:07:41;2.55;;;1.30;;
21315;SDS011;10817;55.820;13.030;2023-03-26T12:10:19;1.50;;;1.10;;
21315;SDS011;10817;55.820;13.030;2023-03-26T12:12:47;8.02;;;1.88;;
21315;SDS011;10817;55.820;13.030;2023-03-26T12:15:16;1.92;;;1.05;;
21315;SDS011;10817;55.820;13.030;2023-03-26T12:17:45;2.03;;;1.17;;
21315;SDS011;10817;55.820;13.030;2023-03-26T12:20:25;6.25;;;1.15;;
21315;SDS011;10817;55.820;13.030;2023-03-26T12:22:56;1.95;;;1.35;;
21315;SDS011;10817;55.820;13.030;2023-03-26T12:25:27;2.45;;;1.10;;
21315;SDS011;10817;55.820;13.030;2023-03-26T12:27:56;2.25;;;1.33;;
21315;SDS011;10817;55.820;13.030;2023-03-26T12:30:28;2.30;;;1.10;;
21315;SDS011;10817;55.820;13.030;2023-03-26T12:32:58;2.42;;;1.40;;
21315;SDS011;10817;55.820;13.030;2023-03-26T12:35:28;1.90;;;1.17;;
21315;SDS011;10817;55.820;13.030;2023-03-26T12:38:12;3.95;;;1.05;;
21315;SDS011;10817;55.820;13.030;2023-03-26T12:40:39;3.97;;;1.20;;
21315;SDS011;10817;55.820;13.030;2023-03-26T12:43:19;2.15;;;0.90;;
21315;SDS011;10817;55.820;13.030;2023-03-26T12:45:49;2.15;;;1.20;;
21315;SDS011;10817;55.820;13.030;2023-03-26T12:48:16;1.25;;;0.90;;
21315;SDS011;10817;55.820;13.030;2023-03-26T12:50:48;1.20;;;1.10;;
21315;SDS011;10817;55.820;13.030;2023-03-26T12:53:30;2.83;;;1.10;;
21315;SDS011;10817;55.820;13.030;2023-03-26T12:56:04;3.88;;;1.38;;
21315;SDS011;10817;55.820;13.030;2023-03-26T12:58:47;7.03;;;1.42;;
21315;SDS011;10817;55.820;13.030;2023-03-26T13:01:23;2.13;;;1.05;;
21315;SDS011;10817;55.820;13.030;2023-03-26T13:04:11;3.53;;;1.10;;
21315;SDS011;10817;55.820;13.030;2023-03-26T13:06:42;1.10;;;1.00;;
21315;SDS011;10817;55.820;13.030;2023-03-26T13:12:16;1.88;;;0.93;;
21315;SDS011;10817;55.820;13.030;2023-03-26T13:14:52;2.30;;;0.95;;
21315;SDS011;10817;55.820;13.030;2023-03-26T13:17:25;2.65;;;1.30;;
21315;SDS011;10817;55.820;13.030;2023-03-26T13:19:55;2.53;;;1.15;;
21315;SDS011;10817;55.820;13.030;2023-03-26T13:22:25;1.42;;;1.00;;
21315;SDS011;10817;55.820;13.030;2023-03-26T13:24:57;3.08;;;1.02;;
21315;SDS011;10817;55.820;13.030;2023-03-26T13:27:31;0.95;;;0.85;;
21315;SDS011;10817;55.820;13.030;2023-03-26T13:30:02;3.05;;;1.27;;
21315;SDS011;10817;55.820;13.030;2023-03-26T13:32:38;2.63;;;1.00;;
21315;SDS011;10817;55.820;13.030;2023-03-26T13:35:16;2.33;;;1.17;;
21315;SDS011;10817;55.820;13.030;2023-03-26T13:37:50;1.30;;;1.10;;
21315;SDS011;10817;55.820;13.030;2023-03-26T13:40:24;1.88;;;1.10;;
21315;SDS011;10817;55.820;13.030;2023-03-26T13:43:00;6.47;;;1.35;;
21315;SDS011;10817;55.820;13.030;2023-03-26T13:45:32;3.25;;;1.80;;
21315;SDS011;10817;55.820;13.030;2023-03-26T13:48:09;3.88;;;1.40;;
21315;SDS011;10817;55.820;13.030;2023-03-26T13:50:40;4.53;;;1.40;;
21315;SDS011;10817;55.820;13.030;2023-03-26T13:53:10;1.27;;;1.08;;
21315;SDS011;10817;55.820;13.030;2023-03-26T13:55:39;4.28;;;1.38;;
21315;SDS011;10817;55.820;13.030;2023-03-26T13:58:10;2.90;;;1.45;;
21315;SDS011;10817;55.820;13.030;2023-03-26T14:00:44;2.05;;;1.52;;
21315;SDS011;10817;55.820;13.030;2023-03-26T14:03:16;3.67;;;1.50;;
21315;SDS011;10817;55.820;13.030;2023-03-26T14:05:47;3.22;;;1.25;;
21315;SDS011;10817;55.820;13.030;2023-03-26T14:08:16;1.98;;;1.30;;
21315;SDS011;10817;55.820;13.030;2023-03-26T14:10:46;6.63;;;1.55;;
21315;SDS011;10817;55.820;13.030;2023-03-26T14:13:17;2.63;;;1.25;;
21315;SDS011;10817;55.820;13.030;2023-03-26T14:15:45;2.40;;;1.40;;
21315;SDS011;10817;55.820;13.030;2023-03-26T14:18:20;1.92;;;1.30;;
21315;SDS011;10817;55.820;13.030;2023-03-26T14:23:33;2.08;;;1.15;;
21315;SDS011;10817;55.820;13.030;2023-03-26T14:26:07;3.78;;;1.23;;
21315;SDS011;10817;55.820;13.030;2023-03-26T14:28:51;1.80;;;1.20;;
21315;SDS011;10817;55.820;13.030;2023-03-26T14:31:20;1.42;;;1.10;;
21315;SDS011;10817;55.820;13.030;2023-03-26T14:33:57;3.42;;;1.23;;
21315;SDS011;10817;55.820;13.030;2023-03-26T14:39:21;3.17;;;1.48;;
21315;SDS011;10817;55.820;13.030;2023-03-26T14:41:55;4.80;;;1.33;;
21315;SDS011;10817;55.820;13.030;2023-03-26T14:44:29;5.40;;;1.70;;
21315;SDS011;10817;55.820;13.030;2023-03-26T14:47:03;2.55;;;1.42;;
21315;SDS011;10817;55.820;13.030;2023-03-26T14:49:45;1.63;;;1.30;;
21315;SDS011;10817;55.820;13.030;2023-03-26T14:52:18;2.50;;;1.30;;
21315;SDS011;10817;55.820;13.030;2023-03-26T14:54:49;2.67;;;1.30;;
21315;SDS011;10817;55.820;13.030;2023-03-26T15:05:48;3.55;;;1.50;;
21315;SDS011;10817;55.820;13.030;2023-03-26T15:08:32;1.83;;;1.15;;
21315;SDS011;10817;55.820;13.030;2023-03-26T15:13:52;1.58;;;1.20;;
21315;SDS011;10817;55.820;13.030;2023-03-26T15:16:27;1.38;;;1.05;;
21315;SDS011;10817;55.820;13.030;2023-03-26T15:19:15;2.85;;;1.08;;
21315;SDS011;10817;55.820;13.030;2023-03-26T15:22:10;2.33;;;1.15;;
21315;SDS011;10817;55.820;13.030;2023-03-26T15:24:50;1.23;;;1.08;;
21315;SDS011;10817;55.820;13.030;2023-03-26T15:33:34;1.60;;;1.10;;
21315;SDS011;10817;55.820;13.030;2023-03-26T15:36:17;1.42;;;1.10;;
21315;SDS011;10817;55.820;13.030;2023-03-26T15:39:06;1.15;;;0.85;;
21315;SDS011;10817;55.820;13.030;2023-03-26T15:41:40;2.60;;;1.00;;
21315;SDS011;10817;55.820;13.030;2023-03-26T15:44:24;2.05;;;1.10;;
21315;SDS011;10817;55.820;13.030;2023-03-26T15:46:56;1.60;;;1.00;;
21315;SDS011;10817;55.820;13.030;2023-03-26T15:49:28;1.50;;;1.15;;
21315;SDS011;10817;55.820;13.030;2023-03-26T15:51:57;1.60;;;1.25;;
21315;SDS011;10817;55.820;13.030;2023-03-26T15:54:31;1.60;;;1.20;;
21315;SDS011;10817;55.820;13.030;2023-03-26T15:57:14;7.90;;;1.38;;
21315;SDS011;10817;55.820;13.030;2023-03-26T15:59:50;1.80;;;1.05;;
21315;SDS011;10817;55.820;13.030;2023-03-26T16:02:22;1.98;;;1.17;;
21315;SDS011;10817;55.820;13.030;2023-03-26T16:04:52;1.05;;;0.90;;
21315;SDS011;10817;55.820;13.030;2023-03-26T16:10:18;1.85;;;0.98;;
21315;SDS011;10817;55.820;13.030;2023-03-26T16:12:52;1.00;;;0.90;;
21315;SDS011;10817;55.820;13.030;2023-03-26T16:15:28;2.63;;;1.30;;